createdAt,value
2023-01-18T00:01:19.805Z,107.82
2023-01-18T00:03:47.379Z,101.85
2023-01-18T00:06:15.187Z,95.32
2023-01-18T00:08:45.105Z,79.40
2023-01-18T00:11:15.489Z,87.15
2023-01-18T00:13:43.239Z,68.53
2023-01-18T00:16:19.634Z,68.60
2023-01-18T00:19:00.067Z,57.92
2023-01-18T00:21:28.255Z,65.57
2023-01-18T00:23:57.048Z,49.22
2023-01-18T00:26:24.165Z,51.10
2023-01-18T00:28:51.307Z,53.72
2023-01-18T00:31:20.821Z,65.25
2023-01-18T00:33:50.032Z,56.92
2023-01-18T00:36:18.531Z,58.27
2023-01-18T00:38:51.869Z,51.22
2023-01-18T00:41:20.320Z,50.33
2023-01-18T00:43:47.499Z,46.08
2023-01-18T00:46:20.222Z,46.00
2023-01-18T00:48:48.369Z,48.38
2023-01-18T00:51:18.580Z,43.38
2023-01-18T00:56:18.777Z,28.75
2023-01-18T00:58:46.179Z,34.83
2023-01-18T01:01:14.157Z,31.80
2023-01-18T01:03:59.750Z,33.60
2023-01-18T01:06:46.869Z,35.83
2023-01-18T01:09:26.407Z,37.88
2023-01-18T01:12:13.114Z,41.83
2023-01-18T01:15:02.126Z,32.95
2023-01-18T01:17:49.483Z,35.35
2023-01-18T01:20:35.340Z,33.60
2023-01-18T01:23:35.235Z,33.22
2023-01-18T01:26:12.992Z,37.78
2023-01-18T01:28:42.423Z,36.33
2023-01-18T01:31:12.910Z,38.75
2023-01-18T01:33:40.553Z,49.03
2023-01-18T01:36:13.536Z,44.75
2023-01-18T01:38:43.844Z,42.80
2023-01-18T01:41:35.278Z,40.08
2023-01-18T01:44:30.044Z,43.25
2023-01-18T01:47:03.174Z,47.38
2023-01-18T01:49:35.044Z,47.92
2023-01-18T01:52:09.484Z,50.55
2023-01-18T01:54:44.453Z,58.25
2023-01-18T01:57:22.177Z,45.47
2023-01-18T02:00:02.676Z,47.58
2023-01-18T02:02:41.613Z,48.92
2023-01-18T02:05:13.013Z,47.67
2023-01-18T02:07:41.497Z,48.55
2023-01-18T02:10:09.322Z,46.42
2023-01-18T02:12:39.247Z,40.97
2023-01-18T02:15:07.774Z,38.50
2023-01-18T02:17:38.821Z,43.67
2023-01-18T02:20:25.810Z,45.72
2023-01-18T02:23:20.492Z,46.58
2023-01-18T02:26:24.611Z,44.47
2023-01-18T02:29:21.278Z,45.33
2023-01-18T02:31:59.081Z,49.53
2023-01-18T02:34:55.803Z,42.17
2023-01-18T02:37:28.677Z,41.08
2023-01-18T02:40:02.474Z,41.30
2023-01-18T02:42:50.030Z,43.60
2023-01-18T02:45:47.688Z,46.72
2023-01-18T02:48:15.885Z,42.85
2023-01-18T02:50:42.917Z,42.95
2023-01-18T02:53:14.990Z,43.63
2023-01-18T02:55:59.430Z,48.38
2023-01-18T02:58:26.466Z,44.38
2023-01-18T03:01:32.171Z,45.15
2023-01-18T03:04:07.236Z,41.47
2023-01-18T03:06:35.254Z,47.33
2023-01-18T03:09:03.106Z,42.38
2023-01-18T03:11:43.762Z,48.10
2023-01-18T03:14:32.451Z,50.45
2023-01-18T03:17:23.975Z,40.97
2023-01-18T03:20:07.831Z,45.55
2023-01-18T03:23:01.521Z,43.13
2023-01-18T03:25:33.363Z,42.28
2023-01-18T03:28:24.575Z,42.42
2023-01-18T03:31:12.742Z,42.83
2023-01-18T03:33:46.210Z,45.50
2023-01-18T03:36:49.005Z,46.38
2023-01-18T03:39:28.662Z,42.33
2023-01-18T03:42:02.041Z,43.47
2023-01-18T03:44:36.023Z,45.63
2023-01-18T03:47:06.133Z,46.45
2023-01-18T03:49:34.974Z,42.30
2023-01-18T03:52:08.189Z,42.63
2023-01-18T03:54:44.480Z,39.58
2023-01-18T03:57:25.683Z,38.97
2023-01-18T03:59:52.882Z,39.97
2023-01-18T04:02:21.598Z,38.20
2023-01-18T04:04:48.721Z,43.45
2023-01-18T04:07:15.950Z,34.72
2023-01-18T04:09:43.084Z,33.33
2023-01-18T04:12:10.240Z,33.03
2023-01-18T04:14:37.284Z,33.88
2023-01-18T04:17:04.387Z,36.33
2023-01-18T04:19:31.483Z,36.15
2023-01-18T04:21:58.551Z,37.08
2023-01-18T04:24:25.585Z,32.38
2023-01-18T04:26:52.731Z,38.60
2023-01-18T04:29:19.813Z,37.88
2023-01-18T04:31:47.403Z,36.88
2023-01-18T04:34:14.522Z,39.22
2023-01-18T04:36:41.652Z,38.50
2023-01-18T04:39:13.112Z,35.83
2023-01-18T04:41:40.177Z,37.97
2023-01-18T04:44:07.487Z,36.38
2023-01-18T04:46:34.982Z,34.60
2023-01-18T04:49:02.085Z,36.60
2023-01-18T04:51:31.494Z,43.40
2023-01-18T04:54:01.724Z,42.37
2023-01-18T04:56:28.957Z,41.35
2023-01-18T04:58:56.144Z,39.83
2023-01-18T05:01:23.840Z,39.33
2023-01-18T05:03:53.520Z,41.85
2023-01-18T05:06:20.938Z,42.17
2023-01-18T05:08:48.321Z,44.90
2023-01-18T05:11:17.460Z,44.90
2023-01-18T05:13:45.710Z,37.20
2023-01-18T05:16:15.842Z,39.90
2023-01-18T05:21:11.118Z,39.75
2023-01-18T05:23:40.377Z,37.60
2023-01-18T05:26:14.736Z,41.67
2023-01-18T05:28:42.854Z,39.85
2023-01-18T05:31:10.215Z,43.72
2023-01-18T05:33:37.569Z,39.10
2023-01-18T05:36:04.995Z,40.05
2023-01-18T05:38:32.289Z,42.95
2023-01-18T05:40:59.522Z,43.95
2023-01-18T05:43:28.662Z,38.42
2023-01-18T05:45:56.305Z,40.17
2023-01-18T05:48:24.288Z,40.50
2023-01-18T05:50:51.481Z,40.53
2023-01-18T05:53:21.764Z,36.75
2023-01-18T05:55:59.905Z,42.40
2023-01-18T05:58:28.458Z,40.55
2023-01-18T06:00:56.030Z,37.80
2023-01-18T06:03:24.245Z,34.63
2023-01-18T06:05:52.127Z,41.03
2023-01-18T06:08:19.523Z,36.63
2023-01-18T06:10:58.287Z,43.90
2023-01-18T06:13:28.271Z,38.92
2023-01-18T06:15:57.026Z,38.65
2023-01-18T06:18:26.134Z,35.92
2023-01-18T06:20:55.084Z,42.65
2023-01-18T06:23:22.394Z,39.92
2023-01-18T06:25:49.862Z,41.47
2023-01-18T06:28:17.312Z,34.55
2023-01-18T06:30:44.457Z,39.85
2023-01-18T06:33:11.644Z,40.40
2023-01-18T06:35:38.942Z,45.10
2023-01-18T06:38:05.980Z,43.25
2023-01-18T06:40:33.278Z,45.97
2023-01-18T06:43:00.666Z,47.00
2023-01-18T06:45:29.665Z,47.95
2023-01-18T06:47:56.827Z,47.63
2023-01-18T06:50:24.029Z,47.50
2023-01-18T06:52:51.931Z,49.78
2023-01-18T06:55:19.928Z,41.63
2023-01-18T06:57:48.062Z,45.67
2023-01-18T07:00:19.046Z,42.58
2023-01-18T07:02:46.291Z,47.88
2023-01-18T07:05:13.369Z,46.67
2023-01-18T07:07:40.389Z,48.13
2023-01-18T07:10:08.018Z,42.25
2023-01-18T07:12:35.935Z,44.10
2023-01-18T07:15:20.537Z,42.50
2023-01-18T07:17:50.691Z,45.08
2023-01-18T07:20:18.651Z,49.83
2023-01-18T07:22:45.883Z,44.65
2023-01-18T07:25:13.674Z,48.92
2023-01-18T07:27:43.804Z,43.53
2023-01-18T07:30:12.627Z,45.88
2023-01-18T07:32:40.565Z,45.33
2023-01-18T07:35:07.971Z,45.63
2023-01-18T07:37:36.222Z,42.55
2023-01-18T07:40:03.609Z,46.38
2023-01-18T07:42:30.739Z,44.30
2023-01-18T07:44:57.799Z,43.63
2023-01-18T07:47:24.834Z,40.30
2023-01-18T07:49:51.943Z,48.05
2023-01-18T07:52:19.038Z,44.00
2023-01-18T07:54:46.074Z,40.08
2023-01-18T07:57:13.576Z,44.00
2023-01-18T07:59:40.805Z,41.80
2023-01-18T08:02:11.157Z,45.05
2023-01-18T08:04:39.566Z,39.30
2023-01-18T08:07:06.686Z,40.05
2023-01-18T08:09:34.379Z,40.72
2023-01-18T08:12:01.926Z,44.28
2023-01-18T08:14:29.024Z,40.65
2023-01-18T08:16:56.144Z,40.05
2023-01-18T08:19:23.342Z,42.10
2023-01-18T08:21:50.429Z,41.80
2023-01-18T08:24:17.546Z,45.72
2023-01-18T08:26:44.796Z,42.47
2023-01-18T08:29:11.915Z,41.55
2023-01-18T08:31:39.042Z,53.08
2023-01-18T08:34:06.222Z,46.17
2023-01-18T08:36:33.248Z,54.22
2023-01-18T08:39:00.334Z,60.70
2023-01-18T08:41:29.151Z,46.10
2023-01-18T08:43:57.551Z,47.45
2023-01-18T08:46:25.046Z,49.88
2023-01-18T08:48:53.938Z,46.00
2023-01-18T08:51:23.228Z,50.13
2023-01-18T08:53:56.747Z,50.88
2023-01-18T08:56:24.123Z,48.38
2023-01-18T08:58:52.372Z,55.35
2023-01-18T09:01:19.779Z,54.22
2023-01-18T09:03:48.988Z,48.67
2023-01-18T09:06:17.066Z,46.53
2023-01-18T09:08:47.314Z,49.75
2023-01-18T09:14:00.293Z,50.22
2023-01-18T09:16:29.008Z,55.42
2023-01-18T09:18:56.614Z,55.75
2023-01-18T09:21:23.976Z,54.00
2023-01-18T09:23:51.188Z,61.70
2023-01-18T09:26:20.918Z,60.08
2023-01-18T09:28:51.231Z,52.50
2023-01-18T09:31:19.665Z,42.22
2023-01-18T09:33:53.239Z,46.13
2023-01-18T09:36:24.076Z,44.35
2023-01-18T09:38:51.207Z,44.70
2023-01-18T09:41:27.090Z,44.40
2023-01-18T09:44:00.054Z,90.20
2023-01-18T09:46:28.353Z,57.75
2023-01-18T09:48:59.532Z,54.75
2023-01-18T09:51:45.355Z,53.63
2023-01-18T09:54:28.315Z,54.00
2023-01-18T09:57:09.142Z,47.13
2023-01-18T09:59:44.098Z,46.38
2023-01-18T10:02:23.963Z,42.20
2023-01-18T10:04:59.358Z,48.88
2023-01-18T10:07:30.496Z,48.08
2023-01-18T10:10:01.060Z,48.63
2023-01-18T10:12:41.310Z,46.92
2023-01-18T10:15:17.642Z,48.25
2023-01-18T10:17:45.919Z,52.92
2023-01-18T10:20:42.942Z,45.85
2023-01-18T10:23:35.037Z,49.70
2023-01-18T10:26:08.081Z,45.60
2023-01-18T10:28:56.526Z,48.50
2023-01-18T10:31:35.493Z,45.25
2023-01-18T10:34:04.933Z,45.03
2023-01-18T10:36:39.178Z,42.33
2023-01-18T10:39:24.277Z,45.28
2023-01-18T10:41:51.633Z,48.63
2023-01-18T10:44:18.770Z,44.17
2023-01-18T10:46:46.022Z,48.63
2023-01-18T10:49:37.767Z,46.58
2023-01-18T10:52:26.509Z,50.40
2023-01-18T10:55:01.622Z,47.83
2023-01-18T10:57:43.621Z,47.80
2023-01-18T11:00:53.050Z,47.65
2023-01-18T11:03:20.494Z,47.43
2023-01-18T11:05:47.691Z,47.45
2023-01-18T11:08:34.593Z,50.00
2023-01-18T11:11:01.827Z,56.72
2023-01-18T11:13:44.892Z,54.15
2023-01-18T11:16:23.564Z,52.88
2023-01-18T11:19:06.321Z,61.22
2023-01-18T11:21:45.923Z,60.30
2023-01-18T11:24:18.886Z,62.90
2023-01-18T11:27:01.904Z,59.28
2023-01-18T11:29:35.937Z,61.05
2023-01-18T11:32:06.964Z,59.17
2023-01-18T11:34:37.692Z,60.90
2023-01-18T11:37:25.111Z,59.15
2023-01-18T11:39:52.287Z,55.72
2023-01-18T11:42:27.657Z,59.00
2023-01-18T11:45:16.369Z,59.33
2023-01-18T11:47:43.458Z,60.20
2023-01-18T11:50:30.746Z,57.45
2023-01-18T11:53:31.762Z,60.47
2023-01-18T11:56:06.681Z,60.40
2023-01-18T11:58:36.000Z,59.53
2023-01-18T12:01:21.955Z,57.83
2023-01-18T12:04:18.131Z,62.75
2023-01-18T12:07:18.699Z,65.13
2023-01-18T12:09:53.186Z,62.67
2023-01-18T12:12:20.587Z,61.38
2023-01-18T12:14:58.322Z,61.88
2023-01-18T12:18:07.778Z,55.83
2023-01-18T12:21:03.986Z,54.97
2023-01-18T12:23:48.495Z,60.63
2023-01-18T12:26:27.526Z,50.83
2023-01-18T12:29:09.609Z,54.03
2023-01-18T12:31:39.259Z,60.83
2023-01-18T12:34:15.180Z,56.30
2023-01-18T12:37:19.414Z,54.67
2023-01-18T12:40:11.237Z,52.47
2023-01-18T12:43:02.874Z,56.15
2023-01-18T12:45:57.470Z,52.58
2023-01-18T12:48:56.914Z,53.35
2023-01-18T12:51:28.857Z,47.50
2023-01-18T12:54:11.995Z,53.50
2023-01-18T12:56:43.206Z,53.90
2023-01-18T12:59:19.585Z,50.92
2023-01-18T13:01:56.314Z,45.08
2023-01-18T13:04:32.856Z,57.00
2023-01-18T13:07:07.368Z,49.88
2023-01-18T13:09:40.473Z,48.78
2023-01-18T13:12:08.308Z,51.10
2023-01-18T13:15:01.952Z,52.42
2023-01-18T13:17:39.559Z,49.22
2023-01-18T13:20:22.470Z,54.05
2023-01-18T13:23:21.683Z,50.05
2023-01-18T13:25:56.036Z,50.40
2023-01-18T13:28:25.151Z,50.38
2023-01-18T13:31:02.272Z,51.72
2023-01-18T13:33:32.939Z,54.90
2023-01-18T13:36:05.312Z,51.80
2023-01-18T13:38:41.752Z,47.72
2023-01-18T13:41:13.543Z,47.47
2023-01-18T13:43:41.643Z,49.28
2023-01-18T13:46:08.793Z,50.53
2023-01-18T13:48:45.484Z,49.17
2023-01-18T13:51:33.527Z,47.00
2023-01-18T13:54:00.640Z,52.13
2023-01-18T13:56:31.958Z,56.53
2023-01-18T13:59:15.791Z,49.47
2023-01-18T14:01:45.116Z,52.42
2023-01-18T14:04:32.037Z,51.13
2023-01-18T14:07:18.551Z,45.28
2023-01-18T14:09:48.634Z,52.42
2023-01-18T14:12:16.044Z,49.08
2023-01-18T14:14:55.718Z,51.78
2023-01-18T14:17:25.113Z,47.95
2023-01-18T14:20:28.522Z,48.90
2023-01-18T14:23:25.249Z,43.58
2023-01-18T14:26:33.026Z,53.60
2023-01-18T14:29:05.279Z,45.33
2023-01-18T14:31:40.086Z,42.65
2023-01-18T14:34:31.793Z,42.85
2023-01-18T14:36:59.349Z,52.50
2023-01-18T14:39:28.483Z,51.35
2023-01-18T14:41:58.937Z,46.22
2023-01-18T14:44:31.260Z,52.05
2023-01-18T14:46:59.471Z,46.28
2023-01-18T14:49:31.425Z,49.70
2023-01-18T14:51:59.830Z,46.30
2023-01-18T14:54:27.083Z,53.30
2023-01-18T14:57:06.130Z,48.70
2023-01-18T14:59:34.049Z,50.78
2023-01-18T15:02:13.914Z,50.45
2023-01-18T15:04:45.762Z,43.33
2023-01-18T15:07:24.265Z,43.80
2023-01-18T15:09:51.426Z,45.53
2023-01-18T15:12:26.638Z,41.22
2023-01-18T15:14:55.771Z,43.25
2023-01-18T15:17:25.527Z,40.65
2023-01-18T15:20:03.404Z,41.95
2023-01-18T15:22:34.475Z,44.38
2023-01-18T15:25:02.238Z,43.25
2023-01-18T15:27:32.818Z,45.28
2023-01-18T15:30:01.609Z,42.63
2023-01-18T15:32:36.330Z,42.97
2023-01-18T15:35:04.767Z,42.90
2023-01-18T15:37:34.463Z,41.08
2023-01-18T15:40:02.793Z,61.88
2023-01-18T15:42:39.681Z,57.47
2023-01-18T15:45:21.050Z,57.55
2023-01-18T15:47:54.484Z,55.55
2023-01-18T15:50:36.426Z,51.17
2023-01-18T15:53:12.139Z,48.67
2023-01-18T15:56:03.965Z,44.35
2023-01-18T15:58:39.371Z,47.28
2023-01-18T16:01:20.455Z,49.47
2023-01-18T16:03:47.766Z,71.72
2023-01-18T16:06:20.785Z,69.75
2023-01-18T16:08:57.197Z,57.25
2023-01-18T16:11:34.040Z,55.95
2023-01-18T16:14:08.112Z,51.90
2023-01-18T16:16:39.736Z,46.65
2023-01-18T16:19:40.767Z,37.80
2023-01-18T16:22:21.925Z,38.05
2023-01-18T16:25:02.796Z,35.92
2023-01-18T16:27:32.177Z,36.15
2023-01-18T16:30:17.486Z,40.53
2023-01-18T16:32:44.756Z,39.38
2023-01-18T16:35:20.409Z,39.40
2023-01-18T16:37:48.446Z,43.30
2023-01-18T16:40:21.641Z,39.10
2023-01-18T16:43:01.679Z,43.78
2023-01-18T16:45:31.520Z,47.20
2023-01-18T16:47:59.206Z,62.83
2023-01-18T16:50:27.132Z,75.45
2023-01-18T16:52:54.537Z,50.30
2023-01-18T16:55:22.988Z,54.60
2023-01-18T16:57:51.705Z,53.97
2023-01-18T17:00:24.803Z,56.30
2023-01-18T17:02:53.558Z,53.17
2023-01-18T17:05:21.012Z,49.17
2023-01-18T17:07:48.923Z,48.45
2023-01-18T17:10:24.717Z,43.60
2023-01-18T17:12:52.045Z,48.58
2023-01-18T17:15:20.149Z,50.35
2023-01-18T17:17:48.192Z,43.20
2023-01-18T17:20:21.433Z,43.53
2023-01-18T17:22:49.052Z,42.92
2023-01-18T17:25:16.663Z,46.88
2023-01-18T17:27:44.742Z,45.00
2023-01-18T17:30:13.881Z,54.92
2023-01-18T17:32:40.916Z,53.15
2023-01-18T17:35:08.801Z,52.72
2023-01-18T17:37:36.017Z,50.05
2023-01-18T17:40:16.341Z,51.00
2023-01-18T17:42:44.930Z,50.67
2023-01-18T17:45:14.679Z,52.28
2023-01-18T17:47:43.527Z,51.45
2023-01-18T17:50:14.442Z,49.75
2023-01-18T17:52:41.653Z,52.58
2023-01-18T17:55:11.836Z,44.03
2023-01-18T18:00:08.167Z,46.20
2023-01-18T18:02:35.675Z,41.95
2023-01-18T18:05:03.204Z,44.65
2023-01-18T18:07:30.989Z,41.08
2023-01-18T18:10:01.413Z,47.38
2023-01-18T18:12:30.235Z,43.90
2023-01-18T18:14:57.730Z,43.40
2023-01-18T18:17:26.838Z,46.08
2023-01-18T18:19:54.258Z,42.75
2023-01-18T18:22:21.817Z,47.88
2023-01-18T18:24:50.029Z,50.10
2023-01-18T18:27:18.239Z,43.67
2023-01-18T18:29:45.955Z,42.40
2023-01-18T18:32:13.709Z,40.45
2023-01-18T18:34:40.917Z,40.20
2023-01-18T18:37:08.159Z,46.42
2023-01-18T18:39:35.266Z,53.10
2023-01-18T18:42:02.622Z,51.63
2023-01-18T18:44:29.735Z,42.83
2023-01-18T18:46:56.755Z,45.28
2023-01-18T18:49:23.891Z,49.97
2023-01-18T18:51:50.962Z,47.08
2023-01-18T18:54:18.420Z,48.83
2023-01-18T18:56:45.484Z,51.38
2023-01-18T18:59:12.519Z,57.70
2023-01-18T19:01:39.666Z,54.35
2023-01-18T19:04:06.944Z,51.83
2023-01-18T19:06:34.844Z,52.30
2023-01-18T19:09:02.014Z,49.75
2023-01-18T19:11:29.174Z,53.95
2023-01-18T19:13:57.128Z,61.15
2023-01-18T19:16:24.444Z,53.40
2023-01-18T19:18:51.505Z,49.65
2023-01-18T19:21:18.806Z,47.92
2023-01-18T19:23:46.241Z,49.83
2023-01-18T19:26:13.801Z,54.03
2023-01-18T19:28:42.234Z,53.60
2023-01-18T19:31:09.329Z,53.10
2023-01-18T19:33:37.034Z,52.90
2023-01-18T19:36:10.059Z,50.90
2023-01-18T19:38:46.591Z,45.75
2023-01-18T19:41:15.596Z,58.38
2023-01-18T19:43:45.712Z,53.35
2023-01-18T19:48:43.234Z,64.57
2023-01-18T19:51:21.709Z,59.15
2023-01-18T19:53:49.456Z,52.28
2023-01-18T19:56:16.542Z,55.88
2023-01-18T19:58:43.683Z,55.78
2023-01-18T20:01:23.063Z,64.82
2023-01-18T20:03:53.839Z,62.95
2023-01-18T20:06:21.005Z,66.30
2023-01-18T20:08:51.763Z,62.85
2023-01-18T20:11:19.193Z,59.42
2023-01-18T20:13:50.616Z,66.13
2023-01-18T20:16:20.577Z,66.32
2023-01-18T20:18:49.003Z,75.43
2023-01-18T20:21:19.315Z,81.18
2023-01-18T20:23:46.422Z,63.40
2023-01-18T20:26:20.050Z,59.10
2023-01-18T20:28:56.095Z,60.05
2023-01-18T20:31:23.436Z,58.95
2023-01-18T20:33:50.584Z,60.58
2023-01-18T20:36:17.658Z,57.47
2023-01-18T20:38:44.843Z,60.55
2023-01-18T20:41:12.188Z,51.15
2023-01-18T20:43:39.680Z,49.45
2023-01-18T20:46:10.291Z,51.63
2023-01-18T20:48:38.074Z,45.15
2023-01-18T20:51:10.178Z,52.60
2023-01-18T20:53:40.151Z,55.83
2023-01-18T20:56:28.485Z,47.05
2023-01-18T20:58:58.348Z,49.00
2023-01-18T21:01:31.941Z,56.38
2023-01-18T21:04:00.761Z,53.72
2023-01-18T21:06:28.436Z,52.03
2023-01-18T21:08:57.416Z,54.80
2023-01-18T21:11:26.814Z,56.47
2023-01-18T21:13:54.627Z,58.08
2023-01-18T21:16:23.624Z,56.03
2023-01-18T21:18:52.970Z,55.92
2023-01-18T21:21:20.376Z,51.47
2023-01-18T21:23:47.499Z,56.80
2023-01-18T21:26:15.003Z,52.85
2023-01-18T21:28:42.124Z,52.85
2023-01-18T21:31:09.350Z,50.03
2023-01-18T21:33:36.804Z,51.40
2023-01-18T21:36:09.753Z,47.75
2023-01-18T21:38:36.927Z,48.90
2023-01-18T21:41:23.045Z,53.40
2023-01-18T21:44:11.382Z,45.78
2023-01-18T21:46:39.099Z,55.05
2023-01-18T21:49:07.008Z,52.85
2023-01-18T21:51:52.722Z,52.55
2023-01-18T21:54:22.177Z,54.67
2023-01-18T21:56:51.008Z,57.72
2023-01-18T21:59:18.190Z,63.67
2023-01-18T22:01:47.245Z,63.80
2023-01-18T22:04:34.855Z,57.83
2023-01-18T22:07:02.208Z,58.20
2023-01-18T22:09:31.503Z,59.88
2023-01-18T22:11:58.757Z,54.27
2023-01-18T22:14:26.392Z,64.60
2023-01-18T22:16:54.049Z,66.25
2023-01-18T22:19:21.503Z,60.20
2023-01-18T22:21:49.770Z,66.07
2023-01-18T22:24:18.050Z,58.38
2023-01-18T22:26:45.776Z,63.10
2023-01-18T22:29:12.957Z,67.43
2023-01-18T22:31:40.408Z,59.97
2023-01-18T22:34:08.163Z,60.67
2023-01-18T22:36:35.334Z,65.20
2023-01-18T22:39:02.644Z,59.28
2023-01-18T22:41:29.933Z,67.45
2023-01-18T22:43:57.540Z,71.88
2023-01-18T22:46:24.878Z,65.43
2023-01-18T22:48:52.307Z,71.82
2023-01-18T22:51:22.166Z,76.57
2023-01-18T22:53:49.799Z,78.43
2023-01-18T22:56:20.596Z,73.18
2023-01-18T22:58:48.576Z,76.38
2023-01-18T23:01:25.236Z,78.57
2023-01-18T23:03:55.340Z,71.70
2023-01-18T23:06:22.469Z,70.07
2023-01-18T23:08:50.292Z,73.57
2023-01-18T23:11:29.456Z,73.20
2023-01-18T23:14:17.109Z,70.80
2023-01-18T23:17:03.052Z,69.28
2023-01-18T23:19:30.935Z,72.25
2023-01-18T23:21:58.406Z,72.82
2023-01-18T23:24:26.039Z,72.35
2023-01-18T23:26:53.247Z,62.47
2023-01-18T23:29:20.713Z,78.07
2023-01-18T23:31:47.693Z,77.40
2023-01-18T23:34:14.783Z,76.50
2023-01-18T23:36:41.834Z,75.97
2023-01-18T23:39:27.811Z,72.47
2023-01-18T23:42:13.327Z,70.47
2023-01-18T23:44:58.963Z,82.20
2023-01-18T23:47:44.530Z,76.60
2023-01-18T23:50:30.113Z,77.20
2023-01-18T23:53:18.941Z,74.28
2023-01-18T23:55:46.281Z,70.03
2023-01-18T23:58:13.442Z,66.45
